Time;durP1;ratioP1;P1;durP2;ratioP2;P2;SDS_P1;SDS_P2;PMS_P1;PMS_P2;Temp;Humidity;BMP_temperature;BMP_pressure;BME280_temperature;BME280_humidity;BME280_pressure;Samples;Min_cycle;Max_cycle;Signal;HPM_P1;HPM_P2
2021/06/24 00:00:57;;;;;;;4.47;3.47;;;;;;;;;;5067426;28;20076;-69
2021/06/24 00:03:25;;;;;;;4.55;3.50;;;;;;;;;;5071121;28;20041;-69
2021/06/24 00:05:52;;;;;;;4.47;3.75;;;;;;;;;;5069514;28;20560;-69
2021/06/24 00:08:19;;;;;;;7.65;3.33;;;;;;;;;;5071270;28;20048;-69
2021/06/24 00:10:46;;;;;;;9.13;4.53;;;;;;;;;;5053697;28;20083;-70
2021/06/24 00:13:13;;;;;;;19.98;11.45;;;;;;;;;;5069483;28;20534;-69
2021/06/24 00:15:40;;;;;;;5.82;3.90;;;;;;;;;;5070047;28;20056;-69
2021/06/24 00:18:08;;;;;;;7.25;5.07;;;;;;;;;;5069866;28;20048;-69
2021/06/24 00:20:37;;;;;;;5.28;4.13;;;;;;;;;;5069868;28;20094;-70
2021/06/24 00:23:04;;;;;;;4.70;3.70;;;;;;;;;;5068655;28;20098;-69
2021/06/24 00:25:31;;;;;;;4.57;3.28;;;;;;;;;;5051532;28;20076;-70
2021/06/24 00:27:58;;;;;;;4.75;3.30;;;;;;;;;;5068707;28;20461;-70
2021/06/24 00:30:25;;;;;;;6.55;3.42;;;;;;;;;;5066560;28;20044;-70
2021/06/24 00:32:52;;;;;;;4.82;3.10;;;;;;;;;;5069456;28;20091;-69
2021/06/24 00:35:19;;;;;;;3.75;2.80;;;;;;;;;;5067054;28;20051;-70
2021/06/24 00:37:47;;;;;;;3.97;3.20;;;;;;;;;;5068683;28;20569;-70
2021/06/24 00:40:14;;;;;;;4.50;2.67;;;;;;;;;;5070188;28;20082;-70
2021/06/24 00:42:41;;;;;;;2.90;2.60;;;;;;;;;;5068862;28;20133;-70
2021/06/24 00:45:09;;;;;;;3.50;2.75;;;;;;;;;;5069379;28;20243;-69
2021/06/24 00:47:36;;;;;;;4.13;2.78;;;;;;;;;;5052743;28;20049;-70
2021/06/24 00:50:04;;;;;;;5.00;2.80;;;;;;;;;;5070403;28;20110;-70
2021/06/24 00:52:31;;;;;;;7.03;3.17;;;;;;;;;;5068908;28;20506;-70
2021/06/24 00:54:58;;;;;;;3.25;2.95;;;;;;;;;;5071026;28;20114;-70
2021/06/24 00:57:25;;;;;;;3.38;2.72;;;;;;;;;;5052461;28;20507;-70
2021/06/24 00:59:52;;;;;;;4.43;2.70;;;;;;;;;;5052496;28;20044;-70
2021/06/24 01:02:19;;;;;;;4.00;3.60;;;;;;;;;;5067486;28;20044;-70
2021/06/24 01:04:45;;;;;;;4.90;4.07;;;;;;;;;;5052436;28;20090;-70
2021/06/24 01:07:12;;;;;;;4.63;3.75;;;;;;;;;;5069604;28;20083;-70
2021/06/24 01:09:38;;;;;;;6.03;3.90;;;;;;;;;;5069510;28;20095;-70
2021/06/24 01:12:08;;;;;;;5.85;4.03;;;;;;;;;;5069033;28;20049;-69
2021/06/24 01:14:35;;;;;;;5.03;3.70;;;;;;;;;;5069389;28;20094;-69
2021/06/24 01:17:03;;;;;;;6.85;4.20;;;;;;;;;;5069517;28;20104;-69
2021/06/24 01:19:30;;;;;;;5.70;3.67;;;;;;;;;;5065466;28;20040;-70
2021/06/24 01:21:59;;;;;;;5.72;3.55;;;;;;;;;;5069983;28;20102;-70
2021/06/24 01:24:25;;;;;;;4.88;3.80;;;;;;;;;;5068955;28;20076;-69
2021/06/24 01:26:52;;;;;;;7.93;4.30;;;;;;;;;;5069892;28;20091;-70
2021/06/24 01:29:18;;;;;;;8.80;4.78;;;;;;;;;;5064405;28;20048;-70
2021/06/24 01:31:45;;;;;;;8.48;4.43;;;;;;;;;;5068836;28;20045;-70
2021/06/24 01:34:12;;;;;;;8.52;5.05;;;;;;;;;;5069914;28;20468;-69
2021/06/24 01:36:39;;;;;;;7.40;4.72;;;;;;;;;;5070034;28;20084;-70
2021/06/24 01:39:10;;;;;;;5.28;4.50;;;;;;;;;;5054383;28;20045;-70
2021/06/24 01:41:37;;;;;;;6.97;5.00;;;;;;;;;;5072719;28;20095;-68
2021/06/24 01:44:04;;;;;;;7.20;5.68;;;;;;;;;;5072823;28;20132;-70
2021/06/24 01:46:31;;;;;;;6.82;5.18;;;;;;;;;;5074321;28;20079;-70
2021/06/24 01:48:57;;;;;;;5.80;4.78;;;;;;;;;;5055801;28;20522;-68
2021/06/24 01:51:24;;;;;;;11.57;5.70;;;;;;;;;;5074424;28;20522;-70
2021/06/24 01:53:51;;;;;;;8.93;5.40;;;;;;;;;;5070249;28;20070;-69
2021/06/24 01:56:18;;;;;;;6.57;4.60;;;;;;;;;;5056482;28;20087;-68
2021/06/24 01:58:44;;;;;;;7.03;4.28;;;;;;;;;;5072452;28;20049;-69
2021/06/24 02:01:11;;;;;;;5.28;4.10;;;;;;;;;;5071971;28;20093;-70
2021/06/24 02:03:38;;;;;;;5.20;4.30;;;;;;;;;;5072017;28;20048;-69
2021/06/24 02:06:05;;;;;;;5.88;3.70;;;;;;;;;;5070376;28;20080;-69
2021/06/24 02:08:35;;;;;;;6.90;3.85;;;;;;;;;;5067173;28;20103;-69
2021/06/24 02:11:02;;;;;;;4.78;3.35;;;;;;;;;;5069524;28;20084;-70
2021/06/24 02:13:29;;;;;;;5.80;4.18;;;;;;;;;;5088381;28;20071;-70
2021/06/24 02:15:55;;;;;;;7.38;4.03;;;;;;;;;;5055365;28;20080;-70
2021/06/24 02:18:22;;;;;;;6.95;3.95;;;;;;;;;;5069831;28;20078;-70
2021/06/24 02:20:49;;;;;;;9.23;4.32;;;;;;;;;;5072283;28;20128;-69
2021/06/24 02:23:15;;;;;;;9.32;4.85;;;;;;;;;;5054385;28;20071;-70
2021/06/24 02:25:42;;;;;;;5.60;4.07;;;;;;;;;;5072406;28;20091;-69
2021/06/24 02:28:08;;;;;;;5.72;4.30;;;;;;;;;;5071982;28;20078;-68
2021/06/24 02:30:35;;;;;;;6.85;4.35;;;;;;;;;;5051868;28;20076;-70
2021/06/24 02:33:05;;;;;;;5.85;3.50;;;;;;;;;;5072935;28;20139;-70
2021/06/24 02:35:32;;;;;;;6.60;4.22;;;;;;;;;;5071769;28;20507;-69
2021/06/24 02:37:58;;;;;;;5.78;4.25;;;;;;;;;;5055205;28;20517;-70
2021/06/24 02:40:25;;;;;;;8.50;4.10;;;;;;;;;;5072917;28;20190;-68
2021/06/24 02:42:52;;;;;;;6.57;3.58;;;;;;;;;;5072789;28;20134;-70
2021/06/24 02:45:18;;;;;;;6.85;4.20;;;;;;;;;;5071618;28;20080;-70
2021/06/24 02:47:45;;;;;;;16.00;4.93;;;;;;;;;;5073231;28;20053;-69
2021/06/24 02:50:13;;;;;;;5.43;3.80;;;;;;;;;;5071675;28;20105;-70
2021/06/24 02:52:40;;;;;;;7.93;4.45;;;;;;;;;;5071886;28;20076;-70
2021/06/24 02:55:07;;;;;;;10.00;4.82;;;;;;;;;;5071564;28;20123;-70
2021/06/24 02:57:34;;;;;;;7.13;4.35;;;;;;;;;;5071352;28;20084;-70
2021/06/24 03:00:01;;;;;;;6.30;4.60;;;;;;;;;;5070791;28;20139;-69
2021/06/24 03:02:27;;;;;;;7.97;4.70;;;;;;;;;;5072581;28;20503;-68
2021/06/24 03:04:54;;;;;;;7.65;4.40;;;;;;;;;;5072185;28;20040;-69
2021/06/24 03:07:20;;;;;;;9.63;5.03;;;;;;;;;;5069243;28;20067;-69
2021/06/24 03:09:47;;;;;;;9.05;5.45;;;;;;;;;;5072710;28;20487;-69
2021/06/24 03:12:14;;;;;;;8.43;5.45;;;;;;;;;;5072381;28;20052;-69
2021/06/24 03:14:40;;;;;;;7.40;5.25;;;;;;;;;;5071632;28;20075;-70
2021/06/24 03:17:07;;;;;;;9.77;5.10;;;;;;;;;;5071040;28;20076;-69
2021/06/24 03:19:33;;;;;;;7.72;4.85;;;;;;;;;;5071057;28;20094;-70
2021/06/24 03:22:00;;;;;;;6.70;4.30;;;;;;;;;;5070892;28;20083;-69
2021/06/24 03:24:26;;;;;;;7.00;4.35;;;;;;;;;;5092591;22;20072;-66
2021/06/24 03:26:53;;;;;;;7.80;4.05;;;;;;;;;;5071868;28;20403;-66
2021/06/24 03:29:20;;;;;;;6.20;4.45;;;;;;;;;;5070176;28;20101;-67
2021/06/24 03:31:46;;;;;;;5.97;4.45;;;;;;;;;;5071173;28;20084;-69
2021/06/24 03:34:13;;;;;;;7.95;4.25;;;;;;;;;;5071960;28;20041;-66
2021/06/24 03:36:39;;;;;;;11.70;4.70;;;;;;;;;;5070125;28;20048;-66
2021/06/24 03:39:06;;;;;;;9.75;4.68;;;;;;;;;;5069770;28;20441;-66
2021/06/24 03:41:33;;;;;;;9.38;5.00;;;;;;;;;;5071439;28;20083;-66
2021/06/24 03:43:59;;;;;;;11.27;5.93;;;;;;;;;;5071321;28;20080;-68
2021/06/24 03:46:30;;;;;;;10.35;6.13;;;;;;;;;;5069477;28;20089;-66
2021/06/24 03:48:57;;;;;;;12.15;5.50;;;;;;;;;;5067718;28;20172;-68
2021/06/24 03:51:23;;;;;;;7.13;5.38;;;;;;;;;;5071938;28;20127;-67
2021/06/24 03:53:50;;;;;;;11.05;5.78;;;;;;;;;;5071211;28;20574;-68
2021/06/24 03:56:16;;;;;;;9.30;5.63;;;;;;;;;;5070729;28;20083;-67
2021/06/24 03:58:43;;;;;;;12.32;5.90;;;;;;;;;;5071336;28;20473;-70
2021/06/24 04:01:10;;;;;;;8.30;5.85;;;;;;;;;;5071320;28;20138;-69
2021/06/24 04:03:36;;;;;;;8.05;5.70;;;;;;;;;;5070058;28;20048;-68
2021/06/24 04:06:03;;;;;;;12.25;5.85;;;;;;;;;;5068345;28;20084;-68
2021/06/24 04:08:30;;;;;;;8.48;5.75;;;;;;;;;;5070841;28;20045;-69
2021/06/24 04:11:04;;;;;;;9.73;4.95;;;;;;;;;;5070152;28;20674;-70
2021/06/24 04:13:35;;;;;;;7.90;5.75;;;;;;;;;;5071267;28;20052;-68
2021/06/24 04:16:02;;;;;;;7.82;5.35;;;;;;;;;;5067678;28;20040;-70
2021/06/24 04:18:29;;;;;;;7.68;5.82;;;;;;;;;;5071007;28;20114;-69
2021/06/24 04:20:56;;;;;;;10.88;6.47;;;;;;;;;;5070945;28;20044;-69
2021/06/24 04:23:22;;;;;;;11.10;6.57;;;;;;;;;;5071070;28;20080;-69
2021/06/24 04:25:49;;;;;;;8.73;7.30;;;;;;;;;;5070485;28;20091;-69
2021/06/24 04:28:16;;;;;;;12.18;7.38;;;;;;;;;;5071436;28;20076;-70
2021/06/24 04:30:43;;;;;;;14.10;7.75;;;;;;;;;;5070471;28;20052;-71
2021/06/24 04:33:09;;;;;;;10.60;8.43;;;;;;;;;;5068171;28;20128;-69
2021/06/24 04:35:36;;;;;;;10.40;7.88;;;;;;;;;;5070229;28;20083;-70
2021/06/24 04:38:03;;;;;;;13.15;8.40;;;;;;;;;;5070811;28;20056;-69
2021/06/24 04:40:30;;;;;;;8.73;7.80;;;;;;;;;;5069140;28;20091;-69
2021/06/24 04:42:56;;;;;;;11.82;8.85;;;;;;;;;;5069757;28;20537;-69
2021/06/24 04:45:23;;;;;;;11.25;8.57;;;;;;;;;;5068772;28;20098;-69
2021/06/24 04:47:51;;;;;;;12.63;8.88;;;;;;;;;;5069907;28;20048;-69
2021/06/24 04:50:18;;;;;;;14.88;8.40;;;;;;;;;;5070793;28;20040;-68
2021/06/24 04:52:44;;;;;;;11.20;8.52;;;;;;;;;;5069768;28;20080;-69
2021/06/24 04:55:12;;;;;;;14.77;9.02;;;;;;;;;;5070432;28;20048;-68
2021/06/24 04:57:39;;;;;;;11.00;6.65;;;;;;;;;;5070496;28;20048;-69
2021/06/24 05:00:07;;;;;;;7.88;6.63;;;;;;;;;;5068501;28;20148;-68
2021/06/24 05:02:34;;;;;;;8.80;7.22;;;;;;;;;;5070106;28;20148;-68
2021/06/24 05:05:02;;;;;;;8.02;6.50;;;;;;;;;;5070263;28;20075;-68
2021/06/24 05:07:28;;;;;;;9.27;7.00;;;;;;;;;;5070526;28;20091;-69
2021/06/24 05:09:55;;;;;;;8.48;6.97;;;;;;;;;;5070135;28;20135;-69
2021/06/24 05:12:26;;;;;;;7.75;5.93;;;;;;;;;;5069735;28;20052;-69
2021/06/24 05:14:53;;;;;;;8.48;6.65;;;;;;;;;;5070306;28;20079;-69
2021/06/24 05:17:19;;;;;;;8.88;6.03;;;;;;;;;;5070174;28;20462;-69
2021/06/24 05:19:46;;;;;;;6.28;5.63;;;;;;;;;;5068981;28;20071;-69
2021/06/24 05:22:16;;;;;;;8.35;5.95;;;;;;;;;;5068951;28;20044;-69
2021/06/24 05:24:43;;;;;;;7.85;5.72;;;;;;;;;;5064970;28;20072;-69
2021/06/24 05:27:10;;;;;;;8.38;5.45;;;;;;;;;;5069210;28;20765;-69
2021/06/24 05:29:37;;;;;;;9.25;5.88;;;;;;;;;;5068575;28;20144;-68
2021/06/24 05:32:04;;;;;;;9.35;5.35;;;;;;;;;;5070006;28;20471;-69
2021/06/24 05:34:32;;;;;;;5.47;4.97;;;;;;;;;;5070123;28;20116;-68
2021/06/24 05:37:00;;;;;;;6.07;5.35;;;;;;;;;;5070375;28;20087;-68
2021/06/24 05:39:27;;;;;;;5.82;5.22;;;;;;;;;;5069491;28;20453;-68
2021/06/24 05:41:57;;;;;;;7.00;5.13;;;;;;;;;;5070299;28;20056;-68
2021/06/24 05:44:24;;;;;;;6.07;5.50;;;;;;;;;;5070098;28;20084;-68
2021/06/24 05:46:51;;;;;;;6.18;5.22;;;;;;;;;;5070112;28;20045;-68
2021/06/24 05:49:18;;;;;;;6.25;5.68;;;;;;;;;;5070248;28;20048;-69
2021/06/24 05:51:44;;;;;;;7.00;5.07;;;;;;;;;;5070001;28;20518;-68
2021/06/24 05:54:11;;;;;;;5.65;5.05;;;;;;;;;;5069620;28;20076;-68
2021/06/24 05:56:38;;;;;;;5.45;4.95;;;;;;;;;;5070200;28;20080;-68
2021/06/24 05:59:04;;;;;;;7.60;5.85;;;;;;;;;;5068455;28;20491;-68
2021/06/24 06:01:31;;;;;;;6.85;5.97;;;;;;;;;;5069956;28;20048;-68
2021/06/24 06:03:57;;;;;;;7.45;6.65;;;;;;;;;;5070002;28;20045;-68
2021/06/24 06:06:24;;;;;;;9.13;6.70;;;;;;;;;;5069718;28;20499;-68
2021/06/24 06:08:51;;;;;;;11.27;7.90;;;;;;;;;;5069856;28;20087;-68
2021/06/24 06:11:18;;;;;;;8.35;7.50;;;;;;;;;;5070018;28;20153;-68
2021/06/24 06:13:45;;;;;;;11.45;7.30;;;;;;;;;;5067828;28;20522;-68
2021/06/24 06:16:11;;;;;;;7.95;7.07;;;;;;;;;;5069864;28;20102;-68
2021/06/24 06:18:38;;;;;;;7.03;6.22;;;;;;;;;;5070020;28;20062;-68
2021/06/24 06:21:05;;;;;;;7.97;6.95;;;;;;;;;;5067506;28;20048;-68
2021/06/24 06:23:31;;;;;;;8.75;6.78;;;;;;;;;;5067783;28;20079;-68
2021/06/24 06:25:58;;;;;;;9.65;8.65;;;;;;;;;;5070346;28;20144;-67
2021/06/24 06:28:25;;;;;;;8.45;6.57;;;;;;;;;;5071883;28;20072;-68
2021/06/24 06:30:53;;;;;;;8.15;6.07;;;;;;;;;;5071285;28;20083;-67
2021/06/24 06:33:21;;;;;;;8.10;7.15;;;;;;;;;;5070853;28;20070;-67
2021/06/24 06:35:48;;;;;;;8.70;7.25;;;;;;;;;;5071413;28;20127;-68
2021/06/24 06:38:15;;;;;;;10.90;6.72;;;;;;;;;;5071415;28;20122;-67
2021/06/24 06:40:42;;;;;;;6.57;5.88;;;;;;;;;;5070588;28;20135;-68
2021/06/24 06:43:08;;;;;;;6.40;5.80;;;;;;;;;;5070906;28;20635;-67
2021/06/24 06:45:36;;;;;;;7.38;6.57;;;;;;;;;;5071150;28;20136;-68
2021/06/24 06:48:03;;;;;;;6.53;5.78;;;;;;;;;;5070770;28;20135;-68
2021/06/24 06:50:31;;;;;;;10.18;6.13;;;;;;;;;;5069183;28;20072;-69
2021/06/24 06:52:57;;;;;;;6.47;5.88;;;;;;;;;;5070661;28;20079;-67
2021/06/24 06:55:28;;;;;;;5.65;5.05;;;;;;;;;;5071418;28;20114;-69
2021/06/24 06:57:57;;;;;;;6.85;5.40;;;;;;;;;;5069361;28;20044;-68
2021/06/24 07:00:24;;;;;;;6.72;5.72;;;;;;;;;;5070358;28;20067;-67
2021/06/24 07:02:51;;;;;;;6.53;5.85;;;;;;;;;;5072050;28;20076;-68
2021/06/24 07:05:18;;;;;;;6.78;5.40;;;;;;;;;;5072210;28;20079;-68
2021/06/24 07:07:44;;;;;;;5.93;5.32;;;;;;;;;;5072580;28;20127;-68
2021/06/24 07:10:11;;;;;;;8.13;5.10;;;;;;;;;;5072689;28;20473;-67
2021/06/24 07:12:38;;;;;;;5.35;4.85;;;;;;;;;;5072289;28;20082;-68
2021/06/24 07:15:05;;;;;;;4.72;4.32;;;;;;;;;;5072157;28;20044;-67
2021/06/24 07:17:32;;;;;;;4.63;4.22;;;;;;;;;;5068260;28;20128;-67
2021/06/24 07:19:58;;;;;;;6.60;4.47;;;;;;;;;;5068774;28;20060;-65
2021/06/24 07:22:25;;;;;;;4.38;3.97;;;;;;;;;;5069530;28;20076;-66
2021/06/24 07:24:52;;;;;;;3.83;3.53;;;;;;;;;;5071324;28;20083;-66
2021/06/24 07:27:18;;;;;;;3.80;3.50;;;;;;;;;;5071482;28;20083;-66
2021/06/24 07:29:45;;;;;;;4.32;3.92;;;;;;;;;;5070803;28;20904;-66
2021/06/24 07:32:12;;;;;;;5.28;4.20;;;;;;;;;;5071482;28;20149;-67
2021/06/24 07:34:38;;;;;;;4.45;3.20;;;;;;;;;;5071101;28;20114;-66
2021/06/24 07:37:05;;;;;;;8.10;3.55;;;;;;;;;;5070699;28;20151;-66
2021/06/24 07:39:32;;;;;;;4.13;3.45;;;;;;;;;;5068237;28;20143;-67
2021/06/24 07:41:59;;;;;;;3.72;3.42;;;;;;;;;;5066115;28;20102;-66
2021/06/24 07:44:26;;;;;;;3.92;3.60;;;;;;;;;;5069218;28;20159;-66
2021/06/24 07:46:53;;;;;;;4.85;4.35;;;;;;;;;;5070377;28;20131;-67
2021/06/24 07:49:19;;;;;;;3.92;3.53;;;;;;;;;;5071089;28;20049;-66
2021/06/24 07:51:46;;;;;;;3.92;3.47;;;;;;;;;;5070260;28;20098;-67
2021/06/24 07:54:13;;;;;;;3.50;3.20;;;;;;;;;;5070711;28;20048;-66
2021/06/24 07:56:40;;;;;;;3.03;2.83;;;;;;;;;;5071266;28;20052;-67
2021/06/24 07:59:13;;;;;;;3.55;3.25;;;;;;;;;;5069407;28;20059;-67
2021/06/24 08:01:41;;;;;;;3.88;3.17;;;;;;;;;;5071435;28;20139;-67
2021/06/24 08:04:09;;;;;;;7.32;3.40;;;;;;;;;;5070224;28;20052;-66
2021/06/24 08:06:37;;;;;;;4.15;3.20;;;;;;;;;;5069123;28;20087;-66
2021/06/24 08:09:06;;;;;;;4.07;3.35;;;;;;;;;;5070867;28;20103;-65
2021/06/24 08:11:32;;;;;;;3.42;3.13;;;;;;;;;;5070432;28;20122;-65
2021/06/24 08:13:59;;;;;;;3.35;3.10;;;;;;;;;;5070104;28;20106;-66
2021/06/24 08:16:28;;;;;;;3.78;3.47;;;;;;;;;;5070036;28;20068;-66
2021/06/24 08:18:54;;;;;;;3.55;2.80;;;;;;;;;;5069398;28;20048;-67
2021/06/24 08:21:21;;;;;;;10.20;3.13;;;;;;;;;;5071205;28;20091;-66
2021/06/24 08:23:47;;;;;;;3.08;2.88;;;;;;;;;;5070599;28;20622;-66
2021/06/24 08:26:15;;;;;;;3.92;2.97;;;;;;;;;;5071428;28;20468;-66
2021/06/24 08:28:42;;;;;;;3.22;2.90;;;;;;;;;;5070742;28;20082;-66
2021/06/24 08:31:08;;;;;;;3.50;2.70;;;;;;;;;;5071261;28;20041;-66
2021/06/24 08:33:35;;;;;;;3.25;2.78;;;;;;;;;;5070667;28;20411;-65
2021/06/24 08:36:04;;;;;;;8.48;4.03;;;;;;;;;;5071108;28;20136;-65
2021/06/24 08:38:30;;;;;;;6.90;2.95;;;;;;;;;;5070895;28;20110;-65
2021/06/24 08:40:58;;;;;;;3.95;2.78;;;;;;;;;;5071078;28;20083;-66
2021/06/24 08:43:25;;;;;;;2.35;2.15;;;;;;;;;;5070555;28;20044;-65
2021/06/24 08:45:56;;;;;;;2.58;2.38;;;;;;;;;;5067449;28;20083;-65
2021/06/24 08:48:23;;;;;;;3.25;2.83;;;;;;;;;;5052397;28;20045;-65
2021/06/24 08:50:49;;;;;;;3.00;2.70;;;;;;;;;;5070483;28;20094;-65
2021/06/24 08:53:20;;;;;;;2.90;2.40;;;;;;;;;;5070623;28;20075;-65
2021/06/24 08:55:51;;;;;;;3.42;2.35;;;;;;;;;;5070588;28;20095;-65
2021/06/24 08:58:18;;;;;;;4.43;2.60;;;;;;;;;;5071073;28;20552;-65
2021/06/24 09:00:44;;;;;;;5.00;2.60;;;;;;;;;;5070618;28;20091;-65
2021/06/24 09:03:21;;;;;;;2.88;2.63;;;;;;;;;;5070541;28;20052;-66
2021/06/24 09:05:58;;;;;;;4.40;3.05;;;;;;;;;;5069978;28;20045;-65
2021/06/24 09:09:00;;;;;;;2.97;2.75;;;;;;;;;;5069432;28;20079;-65
2021/06/24 09:11:28;;;;;;;3.50;2.70;;;;;;;;;;5027990;28;20050;-65
2021/06/24 09:14:06;;;;;;;2.97;2.47;;;;;;;;;;5058452;28;20080;-65
2021/06/24 09:16:35;;;;;;;2.78;2.50;;;;;;;;;;5068893;28;20076;-65
2021/06/24 09:19:15;;;;;;;2.75;2.55;;;;;;;;;;5070361;28;20052;-65
2021/06/24 09:21:54;;;;;;;3.15;2.15;;;;;;;;;;5067319;28;20048;-66
2021/06/24 09:24:37;;;;;;;2.50;2.30;;;;;;;;;;5097177;22;20065;-63
2021/06/24 09:27:18;;;;;;;4.38;2.50;;;;;;;;;;5079963;28;20020;-62
2021/06/24 09:30:05;;;;;;;2.43;2.23;;;;;;;;;;5080312;28;20100;-64
2021/06/24 09:32:42;;;;;;;3.58;2.17;;;;;;;;;;5076591;28;20431;-64
2021/06/24 09:35:19;;;;;;;2.60;2.13;;;;;;;;;;5059886;28;20052;-62
2021/06/24 09:38:14;;;;;;;3.13;2.22;;;;;;;;;;5080347;28;20045;-64
2021/06/24 09:40:42;;;;;;;2.88;2.47;;;;;;;;;;5077464;28;20052;-65
2021/06/24 09:43:29;;;;;;;3.80;2.00;;;;;;;;;;5074375;28;20056;-66
2021/06/24 09:46:05;;;;;;;2.45;2.17;;;;;;;;;;5077741;28;20033;-72
2021/06/24 09:48:55;;;;;;;3.75;2.22;;;;;;;;;;5085137;28;20044;-71
2021/06/24 09:51:26;;;;;;;2.72;2.53;;;;;;;;;;5083448;28;20036;-71
2021/06/24 09:53:57;;;;;;;2.40;2.13;;;;;;;;;;5079206;28;20052;-73
2021/06/24 09:56:36;;;;;;;2.85;2.03;;;;;;;;;;5076752;28;20119;-70
2021/06/24 09:59:04;;;;;;;4.25;1.90;;;;;;;;;;5061587;28;20045;-70
2021/06/24 10:01:31;;;;;;;2.30;2.08;;;;;;;;;;5043125;28;20132;-69
2021/06/24 10:03:59;;;;;;;2.63;2.10;;;;;;;;;;5063680;28;20421;-71
2021/06/24 10:06:27;;;;;;;4.20;2.33;;;;;;;;;;5043170;28;20557;-71
2021/06/24 10:08:54;;;;;;;2.35;1.95;;;;;;;;;;5046178;28;20087;-69
2021/06/24 10:11:22;;;;;;;2.72;1.92;;;;;;;;;;5059721;28;20532;-70
2021/06/24 10:13:49;;;;;;;2.53;1.88;;;;;;;;;;5041486;28;20049;-70
2021/06/24 10:16:16;;;;;;;2.22;2.03;;;;;;;;;;5061141;28;20077;-74
2021/06/24 10:18:47;;;;;;;2.40;2.20;;;;;;;;;;5058420;28;20503;-72
2021/06/24 10:21:15;;;;;;;6.13;3.30;;;;;;;;;;5060198;28;20049;-71
2021/06/24 10:24:03;;;;;;;2.30;2.10;;;;;;;;;;5059209;28;20077;-70
2021/06/24 10:26:30;;;;;;;2.00;1.90;;;;;;;;;;5069911;28;20021;-68
2021/06/24 10:29:23;;;;;;;3.88;2.00;;;;;;;;;;5068829;28;20040;-68
2021/06/24 10:31:54;;;;;;;2.30;2.10;;;;;;;;;;5085179;28;20036;-65
2021/06/24 10:34:21;;;;;;;3.63;2.20;;;;;;;;;;5079940;28;20056;-66
2021/06/24 10:37:16;;;;;;;2.90;1.60;;;;;;;;;;5087034;28;20032;-68
2021/06/24 10:39:47;;;;;;;2.05;1.88;;;;;;;;;;5088495;28;20037;-69
2021/06/24 10:42:15;;;;;;;2.50;1.70;;;;;;;;;;5086108;28;20041;-67
2021/06/24 10:44:42;;;;;;;1.90;1.50;;;;;;;;;;5089486;28;20100;-70
2021/06/24 10:47:09;;;;;;;1.80;1.70;;;;;;;;;;5090369;28;20124;-66
2021/06/24 10:49:38;;;;;;;2.15;1.70;;;;;;;;;;5085040;28;20051;-68
2021/06/24 10:52:28;;;;;;;4.13;1.55;;;;;;;;;;5077743;28;20029;-67
2021/06/24 10:54:58;;;;;;;1.45;1.35;;;;;;;;;;5081127;28;20048;-66
2021/06/24 10:57:38;;;;;;;3.20;1.52;;;;;;;;;;5077704;28;20036;-66
2021/06/24 11:00:37;;;;;;;1.77;1.55;;;;;;;;;;5088525;28;20079;-70
2021/06/24 11:03:07;;;;;;;2.00;1.60;;;;;;;;;;5062264;28;20129;-67
2021/06/24 11:05:47;;;;;;;3.20;1.50;;;;;;;;;;5088757;28;20025;-64
2021/06/24 11:08:17;;;;;;;2.00;1.77;;;;;;;;;;5081786;28;20060;-65
2021/06/24 11:10:50;;;;;;;2.38;1.35;;;;;;;;;;5082426;28;20029;-65
2021/06/24 11:13:35;;;;;;;2.55;1.60;;;;;;;;;;5085325;28;20066;-65
2021/06/24 11:16:03;;;;;;;2.38;1.60;;;;;;;;;;5083323;28;20043;-65
2021/06/24 11:18:30;;;;;;;1.75;1.40;;;;;;;;;;5083269;28;20135;-65
2021/06/24 11:21:01;;;;;;;1.70;1.50;;;;;;;;;;5082493;28;20024;-65
2021/06/24 11:23:28;;;;;;;0.85;0.85;;;;;;;;;;5082502;28;20029;-65
2021/06/24 11:26:12;;;;;;;1.77;1.30;;;;;;;;;;5084267;28;20029;-65
2021/06/24 11:28:58;;;;;;;1.13;0.90;;;;;;;;;;5082561;28;20033;-65
2021/06/24 11:37:08;;;;;;;0.80;0.80;;;;;;;;;;5087970;28;20033;-70
2021/06/24 11:39:37;;;;;;;0.75;0.73;;;;;;;;;;5077823;28;20103;-70
2021/06/24 11:42:08;;;;;;;0.90;0.82;;;;;;;;;;5069724;28;20080;-71
2021/06/24 11:44:41;;;;;;;1.10;1.00;;;;;;;;;;5064162;28;20127;-72
2021/06/24 11:47:13;;;;;;;1.35;1.08;;;;;;;;;;5061854;28;20076;-72
2021/06/24 12:01:49;;;;;;;1.05;0.95;;;;;;;;;;5057069;28;20057;-70
2021/06/24 12:04:20;;;;;;;1.35;0.90;;;;;;;;;;5048530;28;20056;-69
2021/06/24 12:06:50;;;;;;;2.88;1.65;;;;;;;;;;5043161;28;20097;-71
2021/06/24 12:09:24;;;;;;;0.90;0.90;;;;;;;;;;5077796;28;20053;-67
2021/06/24 12:11:55;;;;;;;1.00;0.90;;;;;;;;;;5055744;28;20092;-68
2021/06/24 12:14:27;;;;;;;1.42;1.02;;;;;;;;;;5056030;28;20484;-66
2021/06/24 12:17:06;;;;;;;;;;;;;;;;;;5040168;28;20198;-67
2021/06/24 12:19:58;;;;;;;1.85;1.08;;;;;;;;;;5056810;28;20356;-68
2021/06/24 12:22:31;;;;;;;3.30;1.08;;;;;;;;;;5055434;28;20075;-68
2021/06/24 12:25:10;;;;;;;1.77;1.13;;;;;;;;;;5062293;28;20060;-67
2021/06/24 12:28:03;;;;;;;1.52;0.90;;;;;;;;;;5073130;28;20107;-67
2021/06/24 12:30:33;;;;;;;1.10;1.00;;;;;;;;;;5057419;28;20137;-67
2021/06/24 12:33:05;;;;;;;1.15;1.05;;;;;;;;;;5057248;28;20443;-69
2021/06/24 12:35:43;;;;;;;1.10;1.00;;;;;;;;;;5068274;28;20104;-68
2021/06/24 12:38:12;;;;;;;1.60;1.13;;;;;;;;;;5056781;28;20254;-67
2021/06/24 12:40:44;;;;;;;2.03;1.00;;;;;;;;;;5058773;28;20102;-67
2021/06/24 12:43:22;;;;;;;2.33;1.00;;;;;;;;;;5057214;28;20072;-67
2021/06/24 12:45:52;;;;;;;2.88;0.93;;;;;;;;;;5058102;28;20673;-67
2021/06/24 12:48:30;;;;;;;1.60;0.90;;;;;;;;;;5057006;28;20036;-66
2021/06/24 12:50:59;;;;;;;1.58;0.80;;;;;;;;;;5057558;28;20107;-67
2021/06/24 12:53:31;;;;;;;0.75;0.75;;;;;;;;;;5057546;28;20090;-68
2021/06/24 12:55:58;;;;;;;0.75;0.70;;;;;;;;;;5061005;28;20461;-68
2021/06/24 12:58:24;;;;;;;0.82;0.65;;;;;;;;;;5044274;28;20084;-68
2021/06/24 13:00:58;;;;;;;1.25;0.50;;;;;;;;;;5060648;28;20051;-67
2021/06/24 13:03:38;;;;;;;2.95;0.90;;;;;;;;;;5064176;28;20115;-67
2021/06/24 13:06:09;;;;;;;0.68;0.68;;;;;;;;;;5057677;28;20052;-68
2021/06/24 13:08:35;;;;;;;1.75;0.60;;;;;;;;;;5058718;28;20079;-67
2021/06/24 13:11:13;;;;;;;0.57;0.57;;;;;;;;;;5069141;28;20506;-68
2021/06/24 13:13:39;;;;;;;1.98;0.63;;;;;;;;;;5061502;28;20095;-67
2021/06/24 13:16:23;;;;;;;0.73;0.68;;;;;;;;;;5058571;28;20479;-67
2021/06/24 13:18:52;;;;;;;0.77;0.70;;;;;;;;;;5057108;28;20053;-67
2021/06/24 13:21:18;;;;;;;1.33;0.60;;;;;;;;;;5063101;28;20072;-67
2021/06/24 13:23:45;;;;;;;1.23;0.52;;;;;;;;;;5057535;28;20068;-67
2021/06/24 13:26:20;;;;;;;0.68;0.60;;;;;;;;;;5056010;28;20448;-67
2021/06/24 13:28:56;;;;;;;0.60;0.60;;;;;;;;;;5063382;28;20076;-68
2021/06/24 13:31:33;;;;;;;0.77;0.70;;;;;;;;;;5060741;28;20076;-68
2021/06/24 13:34:21;;;;;;;0.50;0.50;;;;;;;;;;5063198;28;20261;-67
2021/06/24 13:36:47;;;;;;;3.38;0.70;;;;;;;;;;5064168;28;20044;-68
2021/06/24 13:39:16;;;;;;;0.60;0.50;;;;;;;;;;5065459;28;20075;-67
2021/06/24 13:41:44;;;;;;;0.75;0.60;;;;;;;;;;5059865;28;20048;-68
2021/06/24 13:44:20;;;;;;;0.68;0.68;;;;;;;;;;5063075;28;20515;-68
2021/06/24 13:46:48;;;;;;;1.67;0.80;;;;;;;;;;5081123;28;20084;-67
2021/06/24 13:49:17;;;;;;;1.10;1.00;;;;;;;;;;5061793;28;20044;-68
2021/06/24 13:51:46;;;;;;;2.05;0.90;;;;;;;;;;5062654;28;20080;-67
2021/06/24 13:54:15;;;;;;;1.20;1.10;;;;;;;;;;5065900;28;20044;-67
2021/06/24 13:56:42;;;;;;;1.60;0.90;;;;;;;;;;5061879;28;20053;-66
2021/06/24 13:59:09;;;;;;;1.23;1.13;;;;;;;;;;5061550;28;20499;-66
2021/06/24 14:01:35;;;;;;;1.50;0.80;;;;;;;;;;5063716;28;20080;-66
2021/06/24 14:04:03;;;;;;;0.90;0.90;;;;;;;;;;5061841;28;20574;-67
2021/06/24 14:06:36;;;;;;;0.50;0.50;;;;;;;;;;5062341;28;20069;-67
2021/06/24 14:09:14;;;;;;;0.65;0.57;;;;;;;;;;5060081;28;20079;-66
2021/06/24 14:11:43;;;;;;;0.70;0.70;;;;;;;;;;5062669;28;20053;-67
2021/06/24 14:14:09;;;;;;;1.38;0.68;;;;;;;;;;5063101;28;20103;-66
2021/06/24 14:16:36;;;;;;;0.60;0.50;;;;;;;;;;5059630;28;20084;-68
2021/06/24 14:19:15;;;;;;;3.72;0.80;;;;;;;;;;5060596;28;20048;-74
2021/06/24 14:21:42;;;;;;;1.33;1.08;;;;;;;;;;5062002;28;20049;-69
2021/06/24 14:24:09;;;;;;;2.60;0.90;;;;;;;;;;5043894;28;20076;-71
2021/06/24 14:26:38;;;;;;;1.30;1.20;;;;;;;;;;5043812;28;20127;-71
2021/06/24 14:29:09;;;;;;;1.17;0.80;;;;;;;;;;5064398;28;20127;-70
2021/06/24 14:31:36;;;;;;;0.82;0.80;;;;;;;;;;5057692;28;20041;-70
2021/06/24 14:34:03;;;;;;;3.50;1.17;;;;;;;;;;5030868;28;20059;-70
2021/06/24 14:36:30;;;;;;;1.30;1.20;;;;;;;;;;5061144;28;20048;-69
2021/06/24 14:38:56;;;;;;;4.47;1.30;;;;;;;;;;5061229;28;20507;-70
2021/06/24 14:41:25;;;;;;;1.42;1.30;;;;;;;;;;5044751;28;20048;-73
2021/06/24 14:43:52;;;;;;;1.42;1.33;;;;;;;;;;5057916;28;20702;-70
2021/06/24 14:46:19;;;;;;;1.58;1.15;;;;;;;;;;5061225;28;20056;-67
2021/06/24 14:48:46;;;;;;;1.50;1.30;;;;;;;;;;5059204;28;20068;-71
2021/06/24 14:51:13;;;;;;;1.20;1.10;;;;;;;;;;5060973;28;20178;-69
2021/06/24 14:53:41;;;;;;;2.47;1.10;;;;;;;;;;5060733;28;20314;-70
2021/06/24 14:56:10;;;;;;;2.28;0.90;;;;;;;;;;5064174;28;20048;-69
2021/06/24 14:58:36;;;;;;;1.38;1.20;;;;;;;;;;5059649;28;20060;-70
2021/06/24 15:01:03;;;;;;;1.45;1.20;;;;;;;;;;5062620;28;20084;-69
2021/06/24 15:03:30;;;;;;;1.88;1.00;;;;;;;;;;5051848;28;20055;-69
2021/06/24 15:05:56;;;;;;;1.33;0.88;;;;;;;;;;5063170;28;20529;-71
2021/06/24 15:08:23;;;;;;;2.28;1.10;;;;;;;;;;5062835;28;20556;-70
2021/06/24 15:10:50;;;;;;;2.03;1.00;;;;;;;;;;5057910;28;20499;-70
2021/06/24 15:13:17;;;;;;;1.13;1.02;;;;;;;;;;5043059;28;20129;-69